createdAt,value
2023-01-08T00:00:31.647Z,8.50
2023-01-08T00:01:33.468Z,9.03
2023-01-08T00:02:35.174Z,10.60
2023-01-08T00:03:38.212Z,9.30
2023-01-08T00:04:39.972Z,9.57
2023-01-08T00:05:42.234Z,9.60
2023-01-08T00:06:44.688Z,9.03
2023-01-08T00:07:46.441Z,8.73
2023-01-08T00:08:48.157Z,8.50
2023-01-08T00:09:50.617Z,8.50
2023-01-08T00:10:56.073Z,8.80
2023-01-08T00:11:57.737Z,7.37
2023-01-08T00:12:59.424Z,8.13
2023-01-08T00:14:01.149Z,8.50
2023-01-08T00:15:03.907Z,8.17
2023-01-08T00:16:07.745Z,7.93
2023-01-08T00:17:09.482Z,8.30
2023-01-08T00:18:11.164Z,9.37
2023-01-08T00:19:13.467Z,8.70
2023-01-08T00:20:15.297Z,7.50
2023-01-08T00:21:17.403Z,7.60
2023-01-08T00:22:19.089Z,7.93
2023-01-08T00:23:20.969Z,9.03
2023-01-08T00:24:22.748Z,8.03
2023-01-08T00:25:24.488Z,7.47
2023-01-08T00:26:26.229Z,7.50
2023-01-08T00:27:28.040Z,7.93
2023-01-08T00:28:29.986Z,8.20
2023-01-08T00:29:31.652Z,8.63
2023-01-08T00:30:33.510Z,7.33
2023-01-08T00:31:35.218Z,7.33
2023-01-08T00:32:36.950Z,7.60
2023-01-08T00:33:40.346Z,7.30
2023-01-08T00:34:42.080Z,7.67
2023-01-08T00:35:43.741Z,7.90
2023-01-08T00:36:45.415Z,7.77
2023-01-08T00:37:49.640Z,7.80
2023-01-08T00:38:51.319Z,7.60
2023-01-08T00:39:53.100Z,7.77
2023-01-08T00:40:55.178Z,7.43
2023-01-08T00:41:56.912Z,8.00
2023-01-08T00:42:59.090Z,7.67
2023-01-08T00:44:00.885Z,8.60
2023-01-08T00:45:02.627Z,8.20
2023-01-08T00:46:04.538Z,7.93
2023-01-08T00:47:06.298Z,8.57
2023-01-08T00:48:08.031Z,8.30
2023-01-08T00:49:09.761Z,8.70
2023-01-08T00:50:12.280Z,11.87
2023-01-08T00:51:14.085Z,9.77
2023-01-08T00:52:15.794Z,10.27
2023-01-08T00:53:18.915Z,10.03
2023-01-08T00:54:20.622Z,10.67
2023-01-08T00:55:22.327Z,11.03
2023-01-08T00:56:23.981Z,11.50
2023-01-08T00:57:25.635Z,11.80
2023-01-08T00:58:27.451Z,11.50
2023-01-08T00:59:29.099Z,10.20
2023-01-08T01:00:30.751Z,10.80
2023-01-08T01:01:33.045Z,10.90
2023-01-08T01:02:36.319Z,11.37
2023-01-08T01:03:38.178Z,12.03
2023-01-08T01:04:39.983Z,10.63
2023-01-08T01:05:41.661Z,11.50
2023-01-08T01:06:43.316Z,11.37
2023-01-08T01:07:45.229Z,11.70
2023-01-08T01:08:46.902Z,11.13
2023-01-08T01:09:48.649Z,10.63
2023-01-08T01:10:50.336Z,9.90
2023-01-08T01:11:52.036Z,9.47
2023-01-08T01:12:53.756Z,9.73
2023-01-08T01:13:56.670Z,9.63
2023-01-08T01:14:58.501Z,9.10
2023-01-08T01:16:02.266Z,8.70
2023-01-08T01:17:04.476Z,7.90
2023-01-08T01:18:06.264Z,8.40
2023-01-08T01:19:08.537Z,8.27
2023-01-08T01:20:13.726Z,8.87
2023-01-08T01:21:28.476Z,8.10
2023-01-08T01:22:30.259Z,7.90
2023-01-08T01:23:31.986Z,7.60
2023-01-08T01:24:34.008Z,7.77
2023-01-08T01:25:38.829Z,8.07
2023-01-08T01:26:41.527Z,8.23
2023-01-08T01:27:43.556Z,7.97
2023-01-08T01:28:48.090Z,7.80
2023-01-08T01:29:49.744Z,7.33
2023-01-08T01:30:57.857Z,8.20
2023-01-08T01:31:59.543Z,7.93
2023-01-08T01:33:01.200Z,7.60
2023-01-08T01:34:02.945Z,8.60
2023-01-08T01:35:05.496Z,8.40
2023-01-08T01:36:07.710Z,7.93
2023-01-08T01:37:12.076Z,7.83
2023-01-08T01:38:14.242Z,9.10
2023-01-08T01:39:17.307Z,8.60
2023-01-08T01:40:19.051Z,8.33
2023-01-08T01:41:31.504Z,7.80
2023-01-08T01:42:42.158Z,8.00
2023-01-08T01:43:44.269Z,7.80
2023-01-08T01:44:46.212Z,8.70
2023-01-08T01:45:47.943Z,9.30
2023-01-08T01:46:50.109Z,9.20
2023-01-08T01:48:06.683Z,9.33
2023-01-08T01:49:17.705Z,9.23
2023-01-08T01:50:36.265Z,8.70
2023-01-08T01:51:41.612Z,9.57
2023-01-08T01:52:55.448Z,8.97
2023-01-08T01:53:57.561Z,9.03
2023-01-08T01:55:01.709Z,9.43
2023-01-08T01:56:05.076Z,9.20
2023-01-08T01:57:08.444Z,9.30
2023-01-08T01:58:28.926Z,8.80
2023-01-08T01:59:30.952Z,8.40
2023-01-08T02:00:34.148Z,9.93
2023-01-08T02:01:36.475Z,8.87
2023-01-08T02:02:38.437Z,9.53
2023-01-08T02:03:40.519Z,9.47
2023-01-08T02:04:42.375Z,9.27
2023-01-08T02:05:50.658Z,9.60
2023-01-08T02:07:11.613Z,8.97
2023-01-08T02:08:29.823Z,9.13
2023-01-08T02:09:50.551Z,9.40
2023-01-08T02:10:58.561Z,8.70
2023-01-08T02:12:18.343Z,8.97
2023-01-08T02:13:28.731Z,8.40
2023-01-08T02:14:43.017Z,9.07
2023-01-08T02:16:08.223Z,8.87
2023-01-08T02:17:15.721Z,8.40
2023-01-08T02:18:23.193Z,8.83
2023-01-08T02:19:45.821Z,9.07
2023-01-08T02:21:01.496Z,9.10
2023-01-08T02:22:32.016Z,9.30
2023-01-08T02:23:39.953Z,9.40
2023-01-08T02:25:16.018Z,8.80
2023-01-08T02:26:26.608Z,8.47
2023-01-08T02:27:31.103Z,9.60
2023-01-08T02:29:03.612Z,9.20
2023-01-08T02:30:06.336Z,8.17
2023-01-08T02:31:08.323Z,9.23
2023-01-08T02:32:10.385Z,9.57
2023-01-08T02:33:12.597Z,9.53
2023-01-08T02:34:14.720Z,9.83
2023-01-08T02:35:16.559Z,9.67
2023-01-08T02:36:24.399Z,9.33
2023-01-08T02:37:26.287Z,9.03
2023-01-08T02:38:28.730Z,9.63
2023-01-08T02:39:39.949Z,9.50
2023-01-08T02:41:09.535Z,9.77
2023-01-08T02:42:24.264Z,8.43
2023-01-08T02:43:33.811Z,8.70
2023-01-08T02:45:06.553Z,9.53
2023-01-08T02:46:25.899Z,9.33
2023-01-08T02:47:45.476Z,8.63
2023-01-08T02:48:57.031Z,8.20
2023-01-08T02:50:19.006Z,8.20
2023-01-08T02:51:40.264Z,8.80
2023-01-08T02:53:00.742Z,9.40
2023-01-08T02:54:06.908Z,8.10
2023-01-08T02:55:10.705Z,8.30
2023-01-08T02:56:17.663Z,9.63
2023-01-08T02:57:20.642Z,9.47
2023-01-08T02:58:25.985Z,9.10
2023-01-08T02:59:29.587Z,10.13
2023-01-08T03:00:32.833Z,10.33
2023-01-08T03:01:36.047Z,10.37
2023-01-08T03:02:41.145Z,10.60
2023-01-08T03:03:46.935Z,10.00
2023-01-08T03:04:57.974Z,9.73
2023-01-08T03:06:06.616Z,10.77
2023-01-08T03:07:08.458Z,11.20
2023-01-08T03:08:11.914Z,9.40
2023-01-08T03:09:15.769Z,10.07
2023-01-08T03:10:21.634Z,11.13
2023-01-08T03:11:28.743Z,10.27
2023-01-08T03:12:43.387Z,10.23
2023-01-08T03:13:50.839Z,10.70
2023-01-08T03:15:01.803Z,11.37
2023-01-08T03:16:36.904Z,11.70
2023-01-08T03:17:44.664Z,10.73
2023-01-08T03:18:52.571Z,11.70
2023-01-08T03:19:58.572Z,10.53
2023-01-08T03:21:03.340Z,11.30
2023-01-08T03:22:10.349Z,11.30
2023-01-08T03:23:14.637Z,10.70
2023-01-08T03:24:20.617Z,11.40
2023-01-08T03:25:25.008Z,11.40
2023-01-08T03:26:27.741Z,10.57
2023-01-08T03:27:33.801Z,11.73
2023-01-08T03:28:41.865Z,11.90
2023-01-08T03:29:45.277Z,11.23
2023-01-08T03:30:49.266Z,11.53
2023-01-08T03:31:56.398Z,11.13
2023-01-08T03:33:00.974Z,12.43
2023-01-08T03:34:04.854Z,12.17
2023-01-08T03:35:09.813Z,13.40
2023-01-08T03:36:15.582Z,14.63
2023-01-08T03:37:22.965Z,14.07
2023-01-08T03:38:33.019Z,14.97
2023-01-08T03:39:43.257Z,13.73
2023-01-08T03:40:49.409Z,13.50
2023-01-08T03:41:56.314Z,13.00
2023-01-08T03:42:58.075Z,13.43
2023-01-08T03:43:59.808Z,14.30
2023-01-08T03:45:02.143Z,14.03
2023-01-08T03:46:09.150Z,13.33
2023-01-08T03:47:11.988Z,13.47
2023-01-08T03:48:14.333Z,12.57
2023-01-08T03:49:16.888Z,13.70
2023-01-08T03:50:25.813Z,13.43
2023-01-08T03:51:27.801Z,13.23
2023-01-08T03:52:32.158Z,13.53
2023-01-08T03:53:33.831Z,11.87
2023-01-08T03:54:37.889Z,12.77
2023-01-08T03:55:39.634Z,12.60
2023-01-08T03:56:41.779Z,12.10
2023-01-08T03:57:43.514Z,12.70
2023-01-08T03:58:45.248Z,12.20
2023-01-08T03:59:47.419Z,12.63
2023-01-08T04:00:49.079Z,11.90
2023-01-08T04:01:50.931Z,11.20
2023-01-08T04:02:52.813Z,11.30
2023-01-08T04:03:54.572Z,11.73
2023-01-08T04:04:56.392Z,11.87
2023-01-08T04:06:00.682Z,12.07
2023-01-08T04:07:02.440Z,11.60
2023-01-08T04:08:04.362Z,11.53
2023-01-08T04:09:06.417Z,11.97
2023-01-08T04:10:08.431Z,11.57
2023-01-08T04:11:10.204Z,12.13
2023-01-08T04:12:11.903Z,11.57
2023-01-08T04:13:13.642Z,12.20
2023-01-08T04:14:15.630Z,11.53
2023-01-08T04:15:17.750Z,11.30
2023-01-08T04:16:19.421Z,11.70
2023-01-08T04:17:21.206Z,11.20
2023-01-08T04:18:22.911Z,10.40
2023-01-08T04:19:24.691Z,10.23
2023-01-08T04:20:26.409Z,10.30
2023-01-08T04:21:28.255Z,11.13
2023-01-08T04:22:29.976Z,10.83
2023-01-08T04:23:31.759Z,11.00
2023-01-08T04:24:33.463Z,11.30
2023-01-08T04:25:35.185Z,10.73
2023-01-08T04:26:36.916Z,10.67
2023-01-08T04:27:38.619Z,10.40
2023-01-08T04:28:40.314Z,9.20
2023-01-08T04:29:42.065Z,10.17
2023-01-08T04:30:43.967Z,9.57
2023-01-08T04:31:45.698Z,10.37
2023-01-08T04:32:47.370Z,9.23
2023-01-08T04:33:49.264Z,9.93
2023-01-08T04:34:51.021Z,9.43
2023-01-08T04:35:52.685Z,9.27
2023-01-08T04:36:54.423Z,9.03
2023-01-08T04:37:56.164Z,9.17
2023-01-08T04:38:57.933Z,9.20
2023-01-08T04:39:59.691Z,8.97
2023-01-08T04:41:02.317Z,9.00
2023-01-08T04:42:04.101Z,8.07
2023-01-08T04:43:05.875Z,8.33
2023-01-08T04:44:07.669Z,8.10
2023-01-08T04:45:09.823Z,7.40
2023-01-08T04:46:11.574Z,8.07
2023-01-08T04:47:13.342Z,7.73
2023-01-08T04:48:15.079Z,7.77
2023-01-08T04:49:17.051Z,8.33
2023-01-08T04:50:18.800Z,8.07
2023-01-08T04:51:21.575Z,8.27
2023-01-08T04:52:23.301Z,7.87
2023-01-08T04:53:25.045Z,7.30
2023-01-08T04:54:26.796Z,7.17
2023-01-08T04:55:28.684Z,7.77
2023-01-08T04:56:31.294Z,7.30
2023-01-08T04:57:33.381Z,7.73
2023-01-08T04:58:36.236Z,7.67
2023-01-08T04:59:37.984Z,7.23
2023-01-08T05:00:40.172Z,6.73
2023-01-08T05:01:41.980Z,7.17
2023-01-08T05:02:43.966Z,7.30
2023-01-08T05:03:45.912Z,7.40
2023-01-08T05:04:48.337Z,7.63
2023-01-08T05:05:50.109Z,7.73
2023-01-08T05:06:51.818Z,7.83
2023-01-08T05:07:53.551Z,7.33
2023-01-08T05:08:55.552Z,7.30
2023-01-08T05:09:57.345Z,7.67
2023-01-08T05:11:00.133Z,7.43
2023-01-08T05:12:01.903Z,7.50
2023-01-08T05:13:04.022Z,7.43
2023-01-08T05:14:05.776Z,7.57
2023-01-08T05:15:09.054Z,7.60
2023-01-08T05:16:10.787Z,8.63
2023-01-08T05:17:12.549Z,7.47
2023-01-08T05:18:14.315Z,7.13
2023-01-08T05:19:16.244Z,7.10
2023-01-08T05:20:19.102Z,6.43
2023-01-08T05:21:20.910Z,6.60
2023-01-08T05:22:22.666Z,5.97
2023-01-08T05:23:24.339Z,7.07
2023-01-08T05:24:26.082Z,4.10
2023-01-08T05:25:27.822Z,5.20
2023-01-08T05:26:29.556Z,4.90
2023-01-08T05:27:31.226Z,4.50
2023-01-08T05:28:33.635Z,4.10
2023-01-08T05:29:35.325Z,4.00
2023-01-08T05:30:37.485Z,4.10
2023-01-08T05:31:39.223Z,3.57
2023-01-08T05:32:40.958Z,3.70
2023-01-08T05:33:43.357Z,3.10
2023-01-08T05:34:45.477Z,2.70
2023-01-08T05:35:47.206Z,2.67
2023-01-08T05:36:48.925Z,2.20
2023-01-08T05:37:50.641Z,2.40
2023-01-08T05:38:52.426Z,2.37
2023-01-08T05:39:54.196Z,2.27
2023-01-08T05:40:55.928Z,2.40
2023-01-08T05:41:57.653Z,2.77
2023-01-08T05:43:00.101Z,3.00
2023-01-08T05:44:01.796Z,2.70
2023-01-08T05:45:07.481Z,2.40
2023-01-08T05:46:09.249Z,2.00
2023-01-08T05:47:10.978Z,2.00
2023-01-08T05:48:12.686Z,2.30
2023-01-08T05:49:16.198Z,2.17
2023-01-08T05:50:18.592Z,1.93
2023-01-08T05:51:20.255Z,2.10
2023-01-08T05:52:21.967Z,1.97
2023-01-08T05:53:23.840Z,1.90
2023-01-08T05:54:25.648Z,2.10
2023-01-08T05:55:27.828Z,1.90
2023-01-08T05:56:29.565Z,1.90
2023-01-08T05:57:31.237Z,1.60
2023-01-08T05:58:33.225Z,2.03
2023-01-08T05:59:34.926Z,1.90
2023-01-08T06:00:36.766Z,1.90
2023-01-08T06:01:38.481Z,1.60
2023-01-08T06:02:40.268Z,1.67
2023-01-08T06:03:42.336Z,1.63
2023-01-08T06:04:44.421Z,1.67
2023-01-08T06:05:46.107Z,1.87
2023-01-08T06:06:47.850Z,1.90
2023-01-08T06:07:49.572Z,1.80
2023-01-08T06:08:51.366Z,2.00
2023-01-08T06:09:53.148Z,1.77
2023-01-08T06:10:55.313Z,1.70
2023-01-08T06:11:58.567Z,2.40
2023-01-08T06:13:00.351Z,2.63
2023-01-08T06:14:02.181Z,2.87
2023-01-08T06:15:05.799Z,3.00
2023-01-08T06:16:07.846Z,2.20
2023-01-08T06:17:09.988Z,1.93
2023-01-08T06:18:11.726Z,1.67
2023-01-08T06:19:13.622Z,1.57
2023-01-08T06:20:15.437Z,1.70
2023-01-08T06:21:17.167Z,1.43
2023-01-08T06:22:18.824Z,1.50
2023-01-08T06:23:20.567Z,1.60
2023-01-08T06:24:22.307Z,1.73
2023-01-08T06:25:24.765Z,1.90
2023-01-08T06:26:26.544Z,1.80
2023-01-08T06:27:28.289Z,1.77
2023-01-08T06:28:30.097Z,1.80
2023-01-08T06:29:31.783Z,2.10
2023-01-08T06:30:33.511Z,1.80
2023-01-08T06:31:36.172Z,2.30
2023-01-08T06:32:37.984Z,1.93
2023-01-08T06:33:39.784Z,2.00
2023-01-08T06:34:41.498Z,2.10
2023-01-08T06:35:43.210Z,1.80
2023-01-08T06:36:44.879Z,1.80
2023-01-08T06:37:46.693Z,1.87
2023-01-08T06:38:48.476Z,1.90
2023-01-08T06:39:50.135Z,2.00
2023-01-08T06:40:51.813Z,2.03
2023-01-08T06:41:53.515Z,1.90
2023-01-08T06:42:55.244Z,1.70
2023-01-08T06:43:57.283Z,1.83
2023-01-08T06:44:59.051Z,1.70
2023-01-08T06:46:00.997Z,1.63
2023-01-08T06:47:02.817Z,1.40
2023-01-08T06:48:06.418Z,2.20
2023-01-08T06:49:08.416Z,1.80
2023-01-08T06:50:10.345Z,2.20
2023-01-08T06:51:12.085Z,2.50
2023-01-08T06:52:13.824Z,1.43
2023-01-08T06:53:15.565Z,1.50
2023-01-08T06:54:17.340Z,1.50
2023-01-08T06:55:19.143Z,1.53
2023-01-08T06:56:20.792Z,1.43
2023-01-08T06:57:22.649Z,1.20
2023-01-08T06:58:28.060Z,1.30
2023-01-08T06:59:29.780Z,1.17
2023-01-08T07:00:31.947Z,1.10
2023-01-08T07:01:33.751Z,1.20
2023-01-08T07:02:35.777Z,1.30
2023-01-08T07:03:37.792Z,1.20
2023-01-08T07:04:39.601Z,1.17
2023-01-08T07:05:41.374Z,1.30
2023-01-08T07:06:43.138Z,1.30
2023-01-08T07:07:45.130Z,1.30
2023-01-08T07:08:47.023Z,1.10
2023-01-08T07:09:48.719Z,1.00
2023-01-08T07:10:50.491Z,1.00
2023-01-08T07:11:52.201Z,1.33
2023-01-08T07:12:53.916Z,1.30
2023-01-08T07:13:56.014Z,1.00
2023-01-08T07:14:57.899Z,1.30
2023-01-08T07:16:04.543Z,1.30
2023-01-08T07:17:06.431Z,1.30
2023-01-08T07:18:09.834Z,1.27
2023-01-08T07:19:11.548Z,1.40
2023-01-08T07:20:13.504Z,1.30
2023-01-08T07:21:16.224Z,1.20
2023-01-08T07:22:18.054Z,1.20
2023-01-08T07:23:19.749Z,1.20
2023-01-08T07:24:21.516Z,1.10
2023-01-08T07:25:25.262Z,1.13
2023-01-08T07:26:27.878Z,1.13
2023-01-08T07:27:29.582Z,1.20
2023-01-08T07:28:32.005Z,1.30
2023-01-08T07:29:33.760Z,1.30
2023-01-08T07:30:35.556Z,1.20
2023-01-08T07:31:37.419Z,1.10
2023-01-08T07:32:39.126Z,1.30
2023-01-08T07:33:40.998Z,1.40
2023-01-08T07:34:42.729Z,1.20
2023-01-08T07:35:44.483Z,1.30
2023-01-08T07:36:46.275Z,1.33
2023-01-08T07:37:48.840Z,1.10
2023-01-08T07:38:50.800Z,1.40
2023-01-08T07:39:53.277Z,1.30
2023-01-08T07:40:57.468Z,1.20
2023-01-08T07:41:59.199Z,1.50
2023-01-08T07:43:03.268Z,1.60
2023-01-08T07:44:05.093Z,1.27
2023-01-08T07:45:08.169Z,1.43
2023-01-08T07:46:10.227Z,1.20
2023-01-08T07:47:12.012Z,1.40
2023-01-08T07:48:16.759Z,1.47
2023-01-08T07:49:18.468Z,1.30
2023-01-08T07:50:20.195Z,1.20
2023-01-08T07:51:22.019Z,1.60
2023-01-08T07:52:23.765Z,1.20
2023-01-08T07:53:25.447Z,1.30
2023-01-08T07:54:27.206Z,1.20
2023-01-08T07:55:30.764Z,1.13
2023-01-08T07:56:32.565Z,1.37
2023-01-08T07:57:34.340Z,1.60
2023-01-08T07:58:36.933Z,1.20
2023-01-08T07:59:38.708Z,1.40
2023-01-08T08:00:41.171Z,1.30
2023-01-08T08:01:42.993Z,1.10
2023-01-08T08:02:44.966Z,1.40
2023-01-08T08:03:46.874Z,1.30
2023-01-08T08:04:48.607Z,1.20
2023-01-08T08:05:50.972Z,1.13
2023-01-08T08:06:54.229Z,1.43
2023-01-08T08:07:55.942Z,1.10
2023-01-08T08:08:59.932Z,1.20
2023-01-08T08:10:02.032Z,1.10
2023-01-08T08:11:03.819Z,1.20
2023-01-08T08:12:05.676Z,1.20
2023-01-08T08:13:08.171Z,2.57
2023-01-08T08:14:09.963Z,1.20
2023-01-08T08:15:11.726Z,1.30
2023-01-08T08:16:13.595Z,1.50
2023-01-08T08:17:15.348Z,1.43
2023-01-08T08:18:17.157Z,1.20
2023-01-08T08:19:18.974Z,1.20
2023-01-08T08:20:20.714Z,1.20
2023-01-08T08:21:23.196Z,0.93
2023-01-08T08:22:25.027Z,1.27
2023-01-08T08:23:26.903Z,1.30
2023-01-08T08:24:28.681Z,1.50
2023-01-08T08:25:30.926Z,1.30
2023-01-08T08:26:32.609Z,1.20
2023-01-08T08:27:34.327Z,1.60
2023-01-08T08:28:36.080Z,1.10
2023-01-08T08:29:37.780Z,1.27
2023-01-08T08:30:42.314Z,1.30
2023-01-08T08:31:44.521Z,1.20
2023-01-08T08:32:46.275Z,1.30
2023-01-08T08:33:48.094Z,1.33
2023-01-08T08:34:50.730Z,1.30
2023-01-08T08:35:52.492Z,1.40
2023-01-08T08:36:54.247Z,1.20
2023-01-08T08:37:57.075Z,1.40
2023-01-08T08:38:59.000Z,1.33
2023-01-08T08:40:00.778Z,1.50
2023-01-08T08:41:02.614Z,1.40
2023-01-08T08:42:04.486Z,1.23
2023-01-08T08:43:06.269Z,1.40
2023-01-08T08:44:08.612Z,1.20
2023-01-08T08:45:10.447Z,1.60
2023-01-08T08:46:12.290Z,1.30
2023-01-08T08:47:15.255Z,1.30
2023-01-08T08:48:17.172Z,1.40
2023-01-08T08:49:18.920Z,1.33
2023-01-08T08:50:20.884Z,1.30
2023-01-08T08:51:22.736Z,1.50
2023-01-08T08:52:24.529Z,1.50
2023-01-08T08:53:27.681Z,1.40
2023-01-08T08:54:29.545Z,1.23
2023-01-08T08:55:32.899Z,1.27
2023-01-08T08:56:34.620Z,1.17
2023-01-08T08:57:36.310Z,1.30
2023-01-08T08:58:38.040Z,1.37
2023-01-08T08:59:39.767Z,1.20
2023-01-08T09:00:42.882Z,1.10
2023-01-08T09:01:44.710Z,1.40
2023-01-08T09:02:46.579Z,1.50
2023-01-08T09:03:48.513Z,1.10
2023-01-08T09:04:50.187Z,1.27
2023-01-08T09:05:51.900Z,1.70
2023-01-08T09:06:53.603Z,1.40
2023-01-08T09:07:56.051Z,1.10
2023-01-08T09:08:57.934Z,1.40
2023-01-08T09:09:59.772Z,1.30
2023-01-08T09:11:03.355Z,1.33
2023-01-08T09:12:05.300Z,1.20
2023-01-08T09:13:07.068Z,1.40
2023-01-08T09:14:09.767Z,1.47
2023-01-08T09:15:11.809Z,1.30
2023-01-08T09:16:14.384Z,1.10
2023-01-08T09:17:16.366Z,1.30
2023-01-08T09:18:18.197Z,1.57
2023-01-08T09:19:20.116Z,1.40
2023-01-08T09:20:22.661Z,1.60
2023-01-08T09:21:24.400Z,1.30
2023-01-08T09:22:26.083Z,1.40
2023-01-08T09:23:27.828Z,1.80
2023-01-08T09:24:32.318Z,1.40
2023-01-08T09:25:34.090Z,1.80
2023-01-08T09:26:35.951Z,1.80
2023-01-08T09:27:37.652Z,1.50
2023-01-08T09:28:39.399Z,1.83
2023-01-08T09:29:41.325Z,1.60
2023-01-08T09:30:43.101Z,2.40
2023-01-08T09:31:45.585Z,2.00
2023-01-08T09:32:47.354Z,1.60
2023-01-08T09:33:49.260Z,1.53
2023-01-08T09:34:50.966Z,1.33
2023-01-08T09:35:52.674Z,1.63
2023-01-08T09:36:54.371Z,1.60
2023-01-08T09:37:56.696Z,1.60
2023-01-08T09:38:59.230Z,1.90
2023-01-08T09:40:03.146Z,1.90
2023-01-08T09:41:11.771Z,1.87
2023-01-08T09:42:14.713Z,1.47
2023-01-08T09:43:19.421Z,1.30
2023-01-08T09:44:26.548Z,1.50
2023-01-08T09:45:35.037Z,1.30
2023-01-08T09:46:36.949Z,1.60
2023-01-08T09:47:42.458Z,1.60
2023-01-08T09:48:45.928Z,1.33
2023-01-08T09:49:49.810Z,1.40
2023-01-08T09:50:51.683Z,1.40
2023-01-08T09:51:53.510Z,1.43
2023-01-08T09:52:55.363Z,1.70
2023-01-08T09:53:58.616Z,1.43
2023-01-08T09:55:01.192Z,1.30
2023-01-08T09:56:10.774Z,1.40
2023-01-08T09:57:21.311Z,1.20
2023-01-08T09:58:48.948Z,1.40
2023-01-08T09:59:50.967Z,1.30
2023-01-08T10:00:54.531Z,1.40
2023-01-08T10:01:56.764Z,1.27
2023-01-08T10:02:58.849Z,1.20
2023-01-08T10:04:03.958Z,1.50
2023-01-08T10:05:15.479Z,1.57
2023-01-08T10:06:18.337Z,2.60
2023-01-08T10:07:25.501Z,1.77
2023-01-08T10:08:27.256Z,1.77
2023-01-08T10:09:33.187Z,1.20
2023-01-08T10:10:36.604Z,1.40
2023-01-08T10:11:44.641Z,1.40
2023-01-08T10:12:47.531Z,1.60
2023-01-08T10:13:57.244Z,1.47
2023-01-08T10:15:02.291Z,1.63
2023-01-08T10:16:07.665Z,1.70
2023-01-08T10:17:17.401Z,1.40
2023-01-08T10:18:22.920Z,1.80
2023-01-08T10:19:24.754Z,1.60
2023-01-08T10:20:27.236Z,1.93
2023-01-08T10:21:33.074Z,1.53
2023-01-08T10:22:34.909Z,1.80
2023-01-08T10:23:36.615Z,1.80
2023-01-08T10:24:41.413Z,1.83
2023-01-08T10:25:58.267Z,1.70
2023-01-08T10:27:13.655Z,1.80
2023-01-08T10:28:21.258Z,1.90
2023-01-08T10:29:22.950Z,1.60
2023-01-08T10:30:44.923Z,1.80
2023-01-08T10:31:55.499Z,1.57
2023-01-08T10:33:03.447Z,0.97
2023-01-08T10:34:11.363Z,1.00
2023-01-08T10:35:22.356Z,0.97
2023-01-08T10:36:27.549Z,1.10
2023-01-08T10:37:30.707Z,1.03
2023-01-08T10:38:34.394Z,1.20
2023-01-08T10:39:36.425Z,1.50
2023-01-08T10:40:44.567Z,1.40
2023-01-08T10:41:48.558Z,1.20
2023-01-08T10:42:52.075Z,1.20
2023-01-08T10:44:04.195Z,0.90
2023-01-08T10:45:21.913Z,1.10
2023-01-08T10:46:27.255Z,1.27
2023-01-08T10:47:33.233Z,1.20
2023-01-08T10:48:44.857Z,1.20
2023-01-08T10:49:47.092Z,0.90
2023-01-08T10:50:48.940Z,0.90
2023-01-08T10:51:53.183Z,1.30
2023-01-08T10:53:06.409Z,1.10
2023-01-08T10:54:25.282Z,1.07
2023-01-08T10:55:38.973Z,0.97
2023-01-08T10:56:43.338Z,0.87
2023-01-08T10:57:54.537Z,1.00
2023-01-08T10:58:56.724Z,0.90
2023-01-08T10:59:58.545Z,0.87
2023-01-08T11:01:22.435Z,1.10
2023-01-08T11:02:37.977Z,0.90
2023-01-08T11:03:41.624Z,1.00
2023-01-08T11:04:47.828Z,0.90
2023-01-08T11:05:50.166Z,0.93
2023-01-08T11:06:51.999Z,0.80
2023-01-08T11:07:57.458Z,0.87
2023-01-08T11:09:02.032Z,0.90
2023-01-08T11:10:05.040Z,1.10
2023-01-08T11:11:09.436Z,1.00
2023-01-08T11:12:33.067Z,0.90
2023-01-08T11:13:34.909Z,0.90
2023-01-08T11:14:38.200Z,0.90
2023-01-08T11:15:41.725Z,0.90
2023-01-08T11:16:43.629Z,1.10
2023-01-08T11:17:45.802Z,0.80
2023-01-08T11:18:50.443Z,0.80
2023-01-08T11:19:53.344Z,1.00
2023-01-08T11:21:10.345Z,1.15
2023-01-08T11:22:25.855Z,1.40
2023-01-08T11:23:28.361Z,1.00
2023-01-08T11:24:30.309Z,0.93
2023-01-08T11:25:32.160Z,0.70
2023-01-08T11:26:36.410Z,0.80
2023-01-08T11:27:44.103Z,1.00
2023-01-08T11:28:49.739Z,0.83
2023-01-08T11:29:57.111Z,0.90
2023-01-08T11:31:12.303Z,0.80
2023-01-08T11:32:35.780Z,0.73
2023-01-08T11:33:40.915Z,0.70
2023-01-08T11:34:51.564Z,0.70
2023-01-08T11:36:00.792Z,0.93
2023-01-08T11:37:20.553Z,0.80
2023-01-08T11:38:22.261Z,0.80
2023-01-08T11:39:24.014Z,1.10
2023-01-08T11:40:31.663Z,0.90
2023-01-08T11:42:08.686Z,0.98
2023-01-08T11:43:16.100Z,0.80
2023-01-08T11:44:34.657Z,0.70
2023-01-08T11:45:45.586Z,1.00
2023-01-08T11:47:08.401Z,0.65
2023-01-08T11:48:23.361Z,0.90
2023-01-08T11:50:06.887Z,2.83
2023-01-08T11:51:14.384Z,0.63
2023-01-08T11:52:21.819Z,0.80
2023-01-08T11:53:38.630Z,0.70
2023-01-08T11:54:58.358Z,0.60
2023-01-08T11:56:48.423Z,0.80
2023-01-08T11:58:24.636Z,0.87
2023-01-08T12:00:00.326Z,0.85
2023-01-08T12:01:22.960Z,0.63
2023-01-08T12:02:55.721Z,0.73
2023-01-08T12:04:25.496Z,0.85
2023-01-08T12:05:52.498Z,0.80
2023-01-08T12:07:01.864Z,0.80
2023-01-08T12:08:28.942Z,0.80
2023-01-08T12:09:42.887Z,0.83
2023-01-08T12:11:12.455Z,0.90
2023-01-08T12:12:32.787Z,0.83
2023-01-08T12:13:37.287Z,0.77
2023-01-08T12:15:01.281Z,0.73
2023-01-08T12:16:19.513Z,0.70
2023-01-08T12:17:42.898Z,0.77
2023-01-08T12:19:03.803Z,0.80
2023-01-08T12:20:28.996Z,1.00
2023-01-08T12:21:56.055Z,0.90
2023-01-08T12:23:00.882Z,0.90
2023-01-08T12:24:23.685Z,0.80
2023-01-08T12:25:52.300Z,0.77
2023-01-08T12:27:05.602Z,0.90
2023-01-08T12:28:16.132Z,0.80
2023-01-08T12:29:51.365Z,0.60
2023-01-08T12:31:28.602Z,0.83
2023-01-08T12:32:50.630Z,0.90
2023-01-08T12:33:57.162Z,0.80
2023-01-08T12:35:26.141Z,0.80
2023-01-08T12:36:33.545Z,1.40
2023-01-08T12:37:51.837Z,0.90
2023-01-08T12:39:00.200Z,1.17
2023-01-08T12:40:20.288Z,0.90
2023-01-08T12:41:24.900Z,0.80
2023-01-08T12:42:29.371Z,0.73
2023-01-08T12:43:41.417Z,0.77
2023-01-08T12:44:45.580Z,1.10
2023-01-08T12:45:51.162Z,0.90
2023-01-08T12:46:58.381Z,0.90
2023-01-08T12:48:15.312Z,0.90
2023-01-08T12:49:26.018Z,0.90
2023-01-08T12:50:47.342Z,0.60
2023-01-08T12:52:12.139Z,0.63
2023-01-08T12:53:47.237Z,0.90
2023-01-08T12:55:03.408Z,0.70
2023-01-08T12:56:24.179Z,0.60
2023-01-08T12:57:34.686Z,0.60
2023-01-08T12:59:00.096Z,0.88
2023-01-08T13:00:04.910Z,0.60
2023-01-08T13:01:36.204Z,0.67
2023-01-08T13:03:02.561Z,0.70
2023-01-08T13:04:06.166Z,0.43
2023-01-08T13:05:31.039Z,0.70
2023-01-08T13:06:33.007Z,0.70
2023-01-08T13:07:46.999Z,0.80
2023-01-08T13:08:54.293Z,0.70
2023-01-08T13:10:01.507Z,0.67
2023-01-08T13:11:04.156Z,0.63
2023-01-08T13:12:06.213Z,0.63
2023-01-08T13:13:23.249Z,0.70
2023-01-08T13:14:27.366Z,0.90
2023-01-08T13:15:31.632Z,0.73
2023-01-08T13:16:39.912Z,0.87
2023-01-08T13:17:49.025Z,0.80
2023-01-08T13:18:53.000Z,0.77
2023-01-08T13:19:59.672Z,0.90
2023-01-08T13:21:03.203Z,0.90
2023-01-08T13:22:05.079Z,0.90
2023-01-08T13:23:07.106Z,0.60
2023-01-08T13:24:30.226Z,0.82
2023-01-08T13:25:38.017Z,0.90
2023-01-08T13:26:39.732Z,0.90
2023-01-08T13:27:42.181Z,0.82
2023-01-08T13:28:45.096Z,0.90
2023-01-08T13:29:48.999Z,0.80
2023-01-08T13:30:51.464Z,0.90
2023-01-08T13:31:53.643Z,0.88
2023-01-08T13:32:55.372Z,1.17
2023-01-08T13:33:57.236Z,1.07
2023-01-08T13:35:17.163Z,0.90
2023-01-08T13:36:27.629Z,1.10
2023-01-08T13:37:29.388Z,1.00
2023-01-08T13:38:31.148Z,0.80
2023-01-08T13:39:37.940Z,0.83
2023-01-08T13:40:48.153Z,1.00
2023-01-08T13:41:59.067Z,1.13
2023-01-08T13:43:01.707Z,1.15
2023-01-08T13:44:26.923Z,1.00
2023-01-08T13:45:30.221Z,1.17
2023-01-08T13:46:40.847Z,1.40
2023-01-08T13:47:43.787Z,0.98
2023-01-08T13:49:06.856Z,1.30
2023-01-08T13:50:18.182Z,1.20
2023-01-08T13:51:47.443Z,1.40
2023-01-08T13:52:57.986Z,1.25
2023-01-08T13:54:14.971Z,1.30
2023-01-08T13:55:20.250Z,1.30
2023-01-08T13:56:22.193Z,1.30
2023-01-08T13:57:24.503Z,1.20
2023-01-08T13:58:36.560Z,2.05
2023-01-08T13:59:41.453Z,2.33
2023-01-08T14:00:43.111Z,3.00
2023-01-08T14:01:56.375Z,2.35
2023-01-08T14:02:58.315Z,2.08
2023-01-08T14:04:00.034Z,3.00
2023-01-08T14:05:02.752Z,3.80
2023-01-08T14:06:17.017Z,2.72
2023-01-08T14:07:19.425Z,2.00
2023-01-08T14:08:25.248Z,1.50
2023-01-08T14:09:26.938Z,1.13
2023-01-08T14:10:29.656Z,0.85
2023-01-08T14:12:00.769Z,0.93
2023-01-08T14:13:09.495Z,0.77
2023-01-08T14:14:17.248Z,0.80
2023-01-08T14:15:28.115Z,0.70
2023-01-08T14:16:30.088Z,0.80
2023-01-08T14:17:32.909Z,0.73
2023-01-08T14:18:34.751Z,0.88
2023-01-08T14:19:36.497Z,0.75
2023-01-08T14:20:40.967Z,0.93
2023-01-08T14:21:48.339Z,0.52
2023-01-08T14:22:50.287Z,0.60
2023-01-08T14:23:54.003Z,0.70
2023-01-08T14:25:00.306Z,0.70
2023-01-08T14:26:06.373Z,0.60
2023-01-08T14:27:24.266Z,0.77
2023-01-08T14:28:25.941Z,0.65
2023-01-08T14:29:32.983Z,0.50
2023-01-08T14:30:35.748Z,0.50